Time;durP1;ratioP1;P1;durP2;ratioP2;P2;SDS_P1;SDS_P2;PMS_P1;PMS_P2;Temp;Humidity;BMP_temperature;BMP_pressure;BME280_temperature;BME280_humidity;BME280_pressure;Samples;Min_cycle;Max_cycle;Signal;HPM_P1;HPM_P2
2021/04/20 00:04:54;;;;;;;4.30;2.27;;;;;;;3.42;100.00;99266.19;10529269;28;20198;-74
2021/04/20 00:10:16;;;;;;;1.23;0.87;;;;;;;3.37;100.00;99260.97;10530324;28;20174;-74
2021/04/20 00:15:35;;;;;;;4.70;2.33;;;;;;;3.35;100.00;99271.41;10545779;28;20197;-73
2021/04/20 00:20:54;;;;;;;2.50;1.90;;;;;;;3.34;100.00;99258.16;10543889;28;20217;-74
2021/04/20 00:26:13;;;;;;;3.83;1.90;;;;;;;3.17;100.00;99253.84;10544641;28;20181;-73
2021/04/20 00:31:32;;;;;;;3.33;2.13;;;;;;;3.20;100.00;99244.97;10543678;28;20206;-74
2021/04/20 00:36:51;;;;;;;1.97;1.73;;;;;;;3.04;100.00;99237.13;10544481;28;20636;-73
2021/04/20 00:42:10;;;;;;;2.50;2.30;;;;;;;3.02;100.00;99233.97;10544208;28;20709;-73
2021/04/20 00:47:29;;;;;;;2.37;1.90;;;;;;;3.03;100.00;99228.19;10543006;28;20202;-73
2021/04/20 00:52:48;;;;;;;3.30;2.53;;;;;;;3.04;100.00;99237.13;10528916;28;20174;-73
2021/04/20 00:58:07;;;;;;;2.90;1.40;;;;;;;2.94;100.00;99235.69;10544072;28;20174;-73
2021/04/20 01:03:26;;;;;;;2.57;2.23;;;;;;;2.85;100.00;99239.69;10542437;28;20177;-74
2021/04/20 01:08:47;;;;;;;5.17;2.70;;;;;;;3.06;100.00;99235.66;10543834;28;20617;-75
2021/04/20 01:14:07;;;;;;;9.03;3.27;;;;;;;2.97;100.00;99235.00;10543456;28;20197;-74
2021/04/20 01:19:29;;;;;;;4.70;1.93;;;;;;;3.11;100.00;99235.41;10541650;28;20201;-74
2021/04/20 01:24:49;;;;;;;1.90;1.70;;;;;;;3.16;100.00;99232.41;10542391;28;20174;-74
2021/04/20 01:30:10;;;;;;;5.53;2.77;;;;;;;3.04;100.00;99229.78;10526670;28;20218;-73
2021/04/20 01:35:29;;;;;;;3.20;2.17;;;;;;;3.04;100.00;99237.94;10541037;28;20604;-73
2021/04/20 01:40:49;;;;;;;2.50;2.30;;;;;;;3.02;100.00;99229.31;10526601;28;20245;-75
2021/04/20 01:46:08;;;;;;;3.87;2.17;;;;;;;3.06;100.00;99235.66;10520232;28;20256;-75
2021/04/20 01:51:28;;;;;;;4.17;2.77;;;;;;;3.02;100.00;99232.03;10541229;28;20166;-75
2021/04/20 01:56:47;;;;;;;6.93;3.23;;;;;;;2.86;100.00;99241.28;10541419;28;20182;-74
2021/04/20 02:02:06;;;;;;;3.63;2.73;;;;;;;2.84;100.00;99238.91;10539589;28;20206;-74
2021/04/20 02:07:26;;;;;;;2.40;2.10;;;;;;;2.96;100.00;99246.22;10525782;28;20190;-74
2021/04/20 02:12:45;;;;;;;7.40;3.63;;;;;;;3.00;100.00;99237.03;10540975;28;20166;-74
2021/04/20 02:18:06;;;;;;;10.20;2.23;;;;;;;2.81;100.00;99238.78;10539505;28;20182;-74
2021/04/20 02:23:25;;;;;;;3.17;2.63;;;;;;;2.48;100.00;99233.56;10540559;28;20186;-74
2021/04/20 02:28:45;;;;;;;6.77;3.53;;;;;;;2.40;100.00;99229.06;10539370;28;20257;-74
2021/04/20 02:34:09;;;;;;;3.73;1.53;;;;;;;2.41;100.00;99225.22;10538574;28;20175;-74
2021/04/20 02:39:28;;;;;;;3.47;3.10;;;;;;;2.51;100.00;99232.09;10540035;28;20233;-75
2021/04/20 02:44:48;;;;;;;3.70;2.97;;;;;;;2.37;100.00;99223.53;10539906;28;20178;-74
2021/04/20 02:50:17;;;;;;;11.87;1.53;;;;;;;2.26;100.00;99230.56;10522963;28;20647;-74
2021/04/20 02:55:37;;;;;;;1.70;1.60;;;;;;;2.28;100.00;99225.59;10539660;28;20620;-74
2021/04/20 03:01:02;;;;;;;2.70;1.67;;;;;;;2.17;100.00;99231.81;10538691;28;20300;-75
2021/04/20 03:06:22;;;;;;;4.50;2.03;;;;;;;2.20;100.00;99220.25;10538475;28;20648;-74
2021/04/20 03:11:53;;;;;;;11.40;2.00;;;;;;;2.06;100.00;99227.97;10539290;28;20692;-74
2021/04/20 03:17:12;;;;;;;3.10;2.53;;;;;;;2.03;100.00;99223.22;10532123;28;20178;-74
2021/04/20 03:22:33;;;;;;;1.97;1.37;;;;;;;1.94;100.00;99214.44;10538649;28;20213;-73
2021/04/20 03:27:54;;;;;;;2.40;2.10;;;;;;;1.74;100.00;99213.38;10538606;28;20301;-73
2021/04/20 03:33:19;;;;;;;3.30;2.97;;;;;;;1.72;100.00;99215.66;10537645;28;20201;-73
2021/04/20 03:38:58;;;;;;;1.50;1.37;;;;;;;1.84;100.00;99214.88;10538482;28;20178;-75
2021/04/20 03:44:35;;;;;;;4.13;2.90;;;;;;;1.76;100.00;99215.78;10538734;28;20470;-75
2021/04/20 03:49:58;;;;;;;6.03;1.90;;;;;;;1.79;100.00;99213.16;10537327;28;20532;-74
2021/04/20 03:55:19;;;;;;;2.40;2.20;;;;;;;1.89;100.00;99217.34;10538403;28;20178;-74
2021/04/20 04:00:39;;;;;;;3.90;3.23;;;;;;;1.73;100.00;99211.00;10522652;28;20206;-74
2021/04/20 04:06:00;;;;;;;1.27;1.17;;;;;;;1.65;100.00;99206.50;10521316;28;20194;-75
2021/04/20 04:11:22;;;;;;;5.13;3.00;;;;;;;1.55;100.00;99212.34;10522819;28;20186;-73
2021/04/20 04:16:44;;;;;;;2.80;1.80;;;;;;;1.66;100.00;99208.06;10528782;28;20174;-74
2021/04/20 04:22:10;;;;;;;2.40;2.10;;;;;;;1.68;100.00;99219.38;10544961;28;20213;-74
2021/04/20 04:27:38;;;;;;;1.30;1.20;;;;;;;1.69;100.00;99218.25;10529631;28;20210;-76
2021/04/20 04:32:57;;;;;;;2.43;2.23;;;;;;;1.63;100.00;99216.88;10528197;28;20206;-74
2021/04/20 04:38:16;;;;;;;3.03;2.70;;;;;;;1.65;100.00;99222.75;10529551;28;20532;-76
2021/04/20 04:43:36;;;;;;;2.80;2.47;;;;;;;1.65;100.00;99220.84;10528973;28;20202;-77
2021/04/20 04:48:59;;;;;;;3.80;1.70;;;;;;;1.60;100.00;99221.06;10543146;28;20544;-74
2021/04/20 04:54:20;;;;;;;6.73;3.33;;;;;;;1.73;100.00;99221.84;10544261;28;20170;-75
2021/04/20 04:59:42;;;;;;;1.83;1.73;;;;;;;1.72;100.00;99222.97;10543833;28;20206;-72
2021/04/20 05:05:06;;;;;;;3.47;3.17;;;;;;;1.83;100.00;99227.63;10538740;28;20751;-73
2021/04/20 05:10:25;;;;;;;8.17;3.20;;;;;;;2.03;100.00;99234.06;10515144;28;20270;-73
2021/04/20 05:15:45;;;;;;;2.63;2.43;;;;;;;2.10;100.00;99237.81;10486268;28;20183;-73
2021/04/20 05:21:04;;;;;;;6.27;4.47;;;;;;;2.10;100.00;99245.94;10499669;28;20663;-73
2021/04/20 05:26:30;;;;;;;5.30;1.93;;;;;;;2.38;100.00;99244.91;10499697;28;20537;-73
2021/04/20 05:31:50;;;;;;;4.67;2.50;;;;;;;2.51;100.00;99238.31;10484388;28;20637;-74
2021/04/20 05:37:09;;;;;;;5.00;1.60;;;;;;;2.53;100.00;99238.75;10511408;28;20612;-73
2021/04/20 05:42:28;;;;;;;7.43;1.60;;;;;;;2.73;100.00;99239.72;10499772;28;20243;-73
2021/04/20 05:47:49;;;;;;;2.80;2.60;;;;;;;2.91;100.00;99241.03;10498793;28;20171;-73
2021/04/20 05:53:10;;;;;;;4.33;2.30;;;;;;;3.13;100.00;99224.19;10499864;28;20206;-74
2021/04/20 05:58:30;;;;;;;7.60;3.20;;;;;;;3.29;100.00;99223.09;10499585;28;20179;-73
2021/04/20 06:03:50;;;;;;;3.40;3.07;;;;;;;3.67;100.00;99226.00;10507716;28;20684;-74
2021/04/20 06:09:10;;;;;;;4.30;2.40;;;;;;;4.08;100.00;99228.97;10499250;28;20190;-73
2021/04/20 06:14:31;;;;;;;2.80;2.60;;;;;;;4.37;100.00;99234.72;10483756;28;20178;-73
2021/04/20 06:19:51;;;;;;;9.63;5.33;;;;;;;4.57;100.00;99241.00;10497471;28;20203;-77
2021/04/20 06:25:11;;;;;;;3.73;2.93;;;;;;;5.14;100.00;99244.56;10498673;28;20634;-74
2021/04/20 06:30:30;;;;;;;4.10;2.27;;;;;;;5.63;100.00;99246.28;10500084;28;20206;-73
2021/04/20 06:35:49;;;;;;;3.03;2.80;;;;;;;6.15;100.00;99254.66;10523387;28;20205;-74
2021/04/20 06:41:10;;;;;;;14.80;4.27;;;;;;;6.58;100.00;99260.38;10539910;28;20217;-72
2021/04/20 06:46:39;;;;;;;8.50;4.73;;;;;;;7.11;100.00;99255.25;10538454;28;20206;-74
2021/04/20 06:52:04;;;;;;;4.73;2.23;;;;;;;7.80;100.00;99254.47;10531942;28;20166;-75
2021/04/20 06:58:00;;;;;;;7.27;5.87;;;;;;;8.45;100.00;99258.97;10537838;28;20194;-76
2021/04/20 07:03:41;;;;;;;9.10;5.70;;;;;;;8.92;100.00;99242.44;10497920;28;20688;-74
2021/04/20 07:09:22;;;;;;;17.77;6.87;;;;;;;9.24;100.00;99246.13;10532690;28;20186;-73
2021/04/20 07:14:52;;;;;;;13.47;7.33;;;;;;;9.54;100.00;99241.88;10539197;28;20174;-76
2021/04/20 07:20:48;;;;;;;14.70;7.20;;;;;;;9.92;100.00;99241.19;10537638;28;20609;-73
2021/04/20 07:26:29;;;;;;;10.53;7.93;;;;;;;10.28;100.00;99237.28;10538919;28;20174;-74
2021/04/20 07:32:11;;;;;;;9.00;7.30;;;;;;;10.61;100.00;99232.94;10522147;28;20189;-74
2021/04/20 07:37:45;;;;;;;13.93;8.50;;;;;;;10.63;100.00;99238.03;10538763;28;20261;-73
2021/04/20 07:43:30;;;;;;;12.07;7.10;;;;;;;10.05;100.00;99245.16;10515733;28;20214;-74
2021/04/20 07:48:49;;;;;;;8.90;6.60;;;;;;;10.60;100.00;99239.63;10512714;28;20629;-73
2021/04/20 07:54:30;;;;;;;14.20;8.07;;;;;;;11.61;100.00;99241.28;10551540;28;20547;-73
2021/04/20 07:59:52;;;;;;;15.30;8.80;;;;;;;12.57;97.14;99238.19;10549183;28;20656;-75
2021/04/20 08:05:48;;;;;;;13.00;6.67;;;;;;;13.30;88.35;99229.13;10576456;28;20622;-75
2021/04/20 08:11:19;;;;;;;12.57;9.00;;;;;;;12.87;88.28;99239.06;10467846;28;20194;-75
2021/04/20 08:16:45;;;;;;;15.00;8.10;;;;;;;12.62;95.32;99232.25;10528942;28;20182;-76
2021/04/20 08:22:06;;;;;;;14.93;7.67;;;;;;;13.58;91.85;99224.81;10545109;28;20198;-76
2021/04/20 08:27:41;;;;;;;23.20;9.77;;;;;;;14.87;68.68;99213.63;10545217;28;20641;-75
2021/04/20 08:33:08;;;;;;;18.13;9.70;;;;;;;15.33;64.08;99208.78;10528471;28;20182;-75
2021/04/20 08:38:51;;;;;;;16.27;8.90;;;;;;;14.96;65.22;99205.53;10544822;28;20170;-77
2021/04/20 08:44:25;;;;;;;13.70;7.23;;;;;;;16.42;60.00;99200.31;10529331;28;20177;-75
2021/04/20 08:50:00;;;;;;;19.57;9.47;;;;;;;15.48;60.67;99196.97;10543171;28;20259;-75
2021/04/20 08:55:24;;;;;;;18.63;8.90;;;;;;;16.32;57.83;99195.00;10544181;28;20174;-76
2021/04/20 09:01:11;;;;;;;19.73;9.13;;;;;;;16.14;59.02;99183.56;10528066;28;20214;-74
2021/04/20 09:06:33;;;;;;;17.17;9.17;;;;;;;16.81;58.13;99184.16;10528474;28;20178;-74
2021/04/20 09:12:04;;;;;;;16.37;7.60;;;;;;;15.64;60.16;99193.44;10528129;28;20178;-74
2021/04/20 09:17:29;;;;;;;15.47;8.47;;;;;;;17.09;56.72;99177.84;10555447;28;20178;-75
2021/04/20 09:23:05;;;;;;;22.80;8.87;;;;;;;17.91;55.48;99175.00;10542598;28;20210;-74
2021/04/20 09:28:39;;;;;;;16.10;7.50;;;;;;;18.99;51.84;99169.28;10542439;28;20296;-77
2021/04/20 09:34:00;;;;;;;15.57;8.50;;;;;;;19.81;48.82;99174.97;10541540;28;20170;-77
2021/04/20 09:39:21;;;;;;;17.67;8.00;;;;;;;20.08;47.07;99175.88;10542255;28;20280;-75
2021/04/20 09:45:08;;;;;;;10.43;7.23;;;;;;;20.30;46.35;99178.59;10542387;28;20197;-76
2021/04/20 09:50:30;;;;;;;13.20;8.03;;;;;;;21.18;43.34;99174.34;10525309;28;20170;-76
2021/04/20 09:56:17;;;;;;;18.03;8.30;;;;;;;20.92;44.63;99172.31;10526166;28;20207;-75
2021/04/20 10:01:47;;;;;;;13.97;8.00;;;;;;;21.11;43.59;99176.66;10544348;28;20221;-78
2021/04/20 10:07:22;;;;;;;17.23;7.20;;;;;;;21.41;41.23;99168.09;10507312;28;20178;-75
2021/04/20 10:13:19;;;;;;;12.93;8.13;;;;;;;21.31;43.58;99154.59;10498251;28;20287;-75
2021/04/20 10:18:58;;;;;;;11.57;7.30;;;;;;;22.01;40.41;99152.81;10482646;28;20253;-75
2021/04/20 10:24:20;;;;;;;11.37;7.03;;;;;;;21.59;41.06;99151.28;10483581;28;20182;-75
2021/04/20 10:29:53;;;;;;;17.53;8.57;;;;;;;21.69;39.05;99144.38;10497853;28;20264;-75
2021/04/20 10:35:17;;;;;;;11.67;8.10;;;;;;;21.52;41.63;99151.59;10482095;28;20174;-76
2021/04/20 10:40:37;;;;;;;12.13;7.63;;;;;;;22.07;40.14;99136.16;10498138;28;20214;-77
2021/04/20 10:45:59;;;;;;;10.53;7.10;;;;;;;22.30;36.73;99132.59;10498102;28;20571;-76
2021/04/20 10:51:28;;;;;;;10.90;7.50;;;;;;;22.51;42.52;99124.66;10496809;28;20171;-76
2021/04/20 10:56:58;;;;;;;9.47;6.20;;;;;;;22.46;38.58;99121.75;10497737;28;20187;-77
2021/04/20 11:02:21;;;;;;;12.00;7.17;;;;;;;23.06;35.80;99114.56;10480224;28;20671;-77
2021/04/20 11:07:42;;;;;;;9.03;6.70;;;;;;;21.85;36.44;99111.19;10546963;28;20264;-76
2021/04/20 11:13:01;;;;;;;7.13;4.50;;;;;;;21.57;40.38;99103.38;10567869;28;20672;-76
2021/04/20 11:18:21;;;;;;;13.60;7.90;;;;;;;21.89;36.35;99097.00;10504960;28;20187;-76
2021/04/20 11:23:57;;;;;;;10.90;7.70;;;;;;;21.08;38.49;99096.50;10500635;28;20210;-76
2021/04/20 11:29:24;;;;;;;15.53;7.70;;;;;;;21.93;39.14;99092.78;10505199;28;20301;-77
2021/04/20 11:34:47;;;;;;;8.77;6.73;;;;;;;23.35;35.16;99078.88;10504349;28;20630;-77
2021/04/20 11:40:27;;;;;;;10.53;8.00;;;;;;;22.74;34.07;99078.22;10505005;28;20211;-78
2021/04/20 11:45:47;;;;;;;12.57;6.30;;;;;;;24.00;33.56;99078.38;10505123;28;20187;-78
2021/04/20 11:51:07;;;;;;;8.43;5.83;;;;;;;24.87;32.19;99067.53;10503659;28;20617;-78
2021/04/20 11:56:33;;;;;;;9.20;6.30;;;;;;;24.88;29.93;99065.50;10489251;28;20174;-79
2021/04/20 12:01:54;;;;;;;8.17;5.57;;;;;;;25.48;30.16;99061.22;10502973;28;20241;-78
2021/04/20 12:07:15;;;;;;;8.83;5.57;;;;;;;25.41;31.04;99061.69;10504188;28;20633;-78
2021/04/20 12:12:36;;;;;;;13.90;6.30;;;;;;;25.34;29.62;99050.88;10489068;28;20174;-78
2021/04/20 12:17:55;;;;;;;10.07;6.93;;;;;;;24.18;30.96;99041.59;10502627;28;20532;-77
2021/04/20 12:23:19;;;;;;;11.50;6.40;;;;;;;21.36;37.45;99042.78;10503196;28;20210;-77
2021/04/20 12:28:44;;;;;;;7.07;5.77;;;;;;;21.47;35.89;99045.06;10487494;28;20289;-76
2021/04/20 12:34:04;;;;;;;7.60;5.13;;;;;;;22.38;35.27;99039.25;10501427;28;20560;-76
2021/04/20 12:39:29;;;;;;;13.37;6.83;;;;;;;22.90;33.51;99035.69;10487562;28;20202;-77
2021/04/20 12:44:52;;;;;;;7.60;4.83;;;;;;;24.34;33.79;99024.16;10502867;28;20209;-77
2021/04/20 12:50:14;;;;;;;13.83;6.47;;;;;;;23.48;33.98;99019.59;10501350;28;20199;-77
2021/04/20 12:55:35;;;;;;;11.93;6.23;;;;;;;21.52;34.91;99022.81;10502287;28;20199;-77
2021/04/20 13:01:04;;;;;;;8.77;5.70;;;;;;;22.43;34.61;99012.59;10501769;28;20594;-78
2021/04/20 13:06:25;;;;;;;9.53;5.23;;;;;;;24.26;34.79;99008.97;10500838;28;20261;-78
2021/04/20 13:11:47;;;;;;;6.50;4.83;;;;;;;25.65;28.66;98999.34;10502104;28;20174;-77
2021/04/20 13:17:06;;;;;;;7.90;5.30;;;;;;;24.46;29.12;98984.44;10485150;28;20262;-76
2021/04/20 13:22:27;;;;;;;8.47;5.43;;;;;;;24.41;29.69;98987.97;10500602;28;20253;-77
2021/04/20 13:27:52;;;;;;;10.17;6.30;;;;;;;25.19;29.28;98985.47;10500822;28;20214;-77
2021/04/20 13:33:10;;;;;;;6.83;5.43;;;;;;;26.61;26.39;98971.41;10484333;28;20210;-77
2021/04/20 13:38:32;;;;;;;12.70;5.93;;;;;;;26.86;27.67;98961.91;10500795;28;20178;-77
2021/04/20 13:43:53;;;;;;;7.00;6.07;;;;;;;25.81;27.11;98963.59;10500614;28;20182;-77
2021/04/20 13:49:12;;;;;;;5.67;4.97;;;;;;;25.98;28.23;98952.44;10498288;28;20205;-77
2021/04/20 13:54:34;;;;;;;8.57;5.97;;;;;;;25.32;27.68;98957.66;10484879;28;20186;-76
2021/04/20 14:00:01;;;;;;;9.13;5.90;;;;;;;23.95;30.93;98958.25;10499416;28;20686;-76
2021/04/20 14:05:22;;;;;;;8.40;5.00;;;;;;;23.59;31.66;98952.38;10498546;28;20179;-77
2021/04/20 14:10:43;;;;;;;8.47;5.63;;;;;;;22.77;32.28;98937.78;10484307;28;20582;-77
2021/04/20 14:16:10;;;;;;;9.20;5.80;;;;;;;22.75;33.35;98936.72;10498997;28;20182;-77
2021/04/20 14:21:34;;;;;;;6.83;5.00;;;;;;;23.42;31.63;98926.84;10483070;28;20285;-77
2021/04/20 14:27:07;;;;;;;7.70;3.87;;;;;;;23.34;30.89;98925.72;10483306;28;20219;-77
2021/04/20 14:32:32;;;;;;;6.10;4.20;;;;;;;23.04;30.75;98922.69;10482411;28;20175;-77
2021/04/20 14:37:52;;;;;;;7.80;4.43;;;;;;;22.29;31.20;98918.00;10498279;28;20607;-77
2021/04/20 14:43:12;;;;;;;6.00;3.60;;;;;;;21.72;33.75;98923.00;10497625;28;20230;-77
2021/04/20 14:48:33;;;;;;;8.30;5.20;;;;;;;21.01;34.28;98921.34;10480976;28;20174;-77
2021/04/20 14:53:53;;;;;;;6.10;4.23;;;;;;;20.50;34.40;98914.22;10497330;28;20183;-77
2021/04/20 14:59:19;;;;;;;3.90;3.50;;;;;;;21.00;35.53;98919.03;10497216;28;20202;-77
2021/04/20 15:04:37;;;;;;;5.37;3.67;;;;;;;21.30;34.32;98920.75;10480667;28;20254;-76
2021/04/20 15:10:15;;;;;;;5.60;4.30;;;;;;;21.58;35.59;98914.53;10481712;28;20636;-77
2021/04/20 15:15:40;;;;;;;7.60;3.50;;;;;;;21.56;34.16;98924.69;10482129;28;20167;-76
2021/04/20 15:21:30;;;;;;;2.90;2.70;;;;;;;21.29;36.90;98930.41;10495795;28;20202;-76
2021/04/20 15:27:32;;;;;;;14.53;6.20;;;;;;;20.67;45.06;98934.97;10476997;28;20305;-76
2021/04/20 15:32:51;;;;;;;10.80;5.30;;;;;;;21.21;43.26;98924.34;10480316;28;20183;-76
2021/04/20 15:38:24;;;;;;;16.47;7.43;;;;;;;21.57;43.63;98929.78;10496976;28;20175;-76
2021/04/20 15:43:48;;;;;;;12.90;5.80;;;;;;;21.20;44.20;98938.81;10480569;28;20202;-77
2021/04/20 15:49:10;;;;;;;8.60;6.37;;;;;;;20.42;45.61;98940.94;10479939;28;20171;-77
2021/04/20 15:54:33;;;;;;;9.67;6.20;;;;;;;19.62;48.16;98940.91;10481547;28;20179;-77
2021/04/20 15:59:54;;;;;;;6.40;5.60;;;;;;;19.26;47.64;98935.22;10481369;28;20748;-76
2021/04/20 16:05:18;;;;;;;9.00;6.30;;;;;;;18.99;46.75;98940.66;10479903;28;20199;-76
2021/04/20 16:10:38;;;;;;;7.20;5.30;;;;;;;18.75;46.22;98933.28;10485420;28;20166;-76
2021/04/20 16:16:05;;;;;;;5.73;4.37;;;;;;;18.80;44.83;98927.09;10488536;28;20170;-76
2021/04/20 16:21:33;;;;;;;7.40;4.40;;;;;;;18.99;46.03;98932.28;10486991;28;20210;-77
2021/04/20 16:26:54;;;;;;;8.40;5.47;;;;;;;19.81;43.29;98934.06;10503124;28;20219;-76
2021/04/20 16:32:16;;;;;;;9.47;6.20;;;;;;;19.72;43.54;98922.91;10486468;28;20186;-76
2021/04/20 16:38:12;;;;;;;8.60;5.87;;;;;;;19.36;45.39;98926.41;10487914;28;20262;-75
2021/04/20 16:43:46;;;;;;;10.80;7.33;;;;;;;18.58;49.24;98927.13;10502369;28;20204;-77
2021/04/20 16:49:17;;;;;;;8.83;5.30;;;;;;;18.37;48.69;98926.41;10501387;28;20580;-76
2021/04/20 16:54:50;;;;;;;9.00;5.97;;;;;;;17.78;51.05;98934.88;10487471;28;20559;-77
2021/04/20 17:00:23;;;;;;;10.63;5.37;;;;;;;17.50;50.45;98923.94;10502102;28;20198;-77
2021/04/20 17:06:16;;;;;;;6.43;5.20;;;;;;;17.52;49.50;98929.84;10485525;28;20186;-76
2021/04/20 17:11:35;;;;;;;6.73;5.37;;;;;;;17.57;51.07;98918.94;10501977;28;20182;-77
2021/04/20 17:17:12;;;;;;;10.93;5.07;;;;;;;17.47;50.15;98920.06;10485097;28;20636;-76
2021/04/20 17:23:10;;;;;;;7.40;4.57;;;;;;;17.05;50.68;98915.88;10485502;28;20218;-77
2021/04/20 17:28:41;;;;;;;10.67;6.43;;;;;;;16.77;51.68;98916.78;10500731;28;20214;-76
2021/04/20 17:34:13;;;;;;;8.13;4.83;;;;;;;16.51;54.48;98924.75;10499841;28;20175;-76
2021/04/20 17:39:46;;;;;;;7.60;5.50;;;;;;;16.42;56.17;98935.72;10485364;28;20661;-75
2021/04/20 17:45:19;;;;;;;15.70;7.47;;;;;;;15.87;58.50;98936.09;10485274;28;20186;-75
2021/04/20 17:51:08;;;;;;;7.10;5.23;;;;;;;15.27;63.41;98947.94;10499074;28;20174;-76
2021/04/20 17:56:48;;;;;;;10.57;7.20;;;;;;;14.81;66.74;98953.00;10482451;28;20186;-75
2021/04/20 18:02:35;;;;;;;12.73;5.87;;;;;;;14.61;66.68;98948.72;10497975;28;20684;-75
2021/04/20 18:08:19;;;;;;;7.50;5.10;;;;;;;14.49;66.93;98963.22;10484435;28;20639;-75
2021/04/20 18:13:50;;;;;;;10.47;4.60;;;;;;;14.37;67.28;98961.88;10484273;28;20167;-75
2021/04/20 18:19:16;;;;;;;6.50;4.90;;;;;;;14.15;68.29;98971.03;10497746;28;20175;-76
2021/04/20 18:24:42;;;;;;;7.73;4.57;;;;;;;14.10;68.86;98968.75;10499067;28;20182;-75
2021/04/20 18:30:17;;;;;;;13.27;7.50;;;;;;;14.04;69.38;98975.97;10498190;28;20214;-75
2021/04/20 18:35:47;;;;;;;5.17;4.30;;;;;;;13.98;70.09;98974.88;10496974;28;20636;-75
2021/04/20 18:41:16;;;;;;;11.37;7.00;;;;;;;13.87;71.03;98979.88;10482794;28;20206;-75
2021/04/20 18:47:22;;;;;;;9.67;5.07;;;;;;;13.85;71.39;98982.25;10496832;28;20579;-75
2021/04/20 18:52:51;;;;;;;7.00;5.30;;;;;;;13.70;73.04;98989.25;10451360;28;20227;-75
2021/04/20 18:58:25;;;;;;;10.27;5.20;;;;;;;13.62;73.98;98990.59;10482567;28;20557;-75
2021/04/20 19:03:53;;;;;;;8.23;5.57;;;;;;;13.46;75.90;98997.19;10495976;28;20206;-75
2021/04/20 19:09:22;;;;;;;9.73;4.87;;;;;;;13.39;78.46;99000.84;10497297;28;20174;-75
2021/04/20 19:15:04;;;;;;;10.30;6.77;;;;;;;13.42;84.14;99011.06;10497525;28;20175;-75
2021/04/20 19:20:46;;;;;;;13.30;6.20;;;;;;;13.22;85.91;99006.66;10480793;28;20202;-76
2021/04/20 19:26:19;;;;;;;15.20;6.60;;;;;;;13.00;87.75;99010.94;10497240;28;20174;-76
2021/04/20 19:31:46;;;;;;;14.13;6.90;;;;;;;13.04;87.89;99008.91;10495649;28;20194;-76
2021/04/20 19:37:18;;;;;;;7.00;6.20;;;;;;;12.87;89.40;99001.63;10481715;28;20566;-75
2021/04/20 19:42:47;;;;;;;17.03;7.10;;;;;;;12.82;88.65;99005.63;10481381;28;20246;-75
2021/04/20 19:48:11;;;;;;;12.77;6.47;;;;;;;12.78;87.83;99006.88;10504164;28;20178;-75
2021/04/20 19:53:33;;;;;;;5.83;4.37;;;;;;;12.70;87.27;99007.41;10504407;28;20171;-75
2021/04/20 19:58:56;;;;;;;5.67;4.77;;;;;;;12.62;87.04;99005.94;10504223;28;20190;-75
2021/04/20 20:04:24;;;;;;;7.47;5.43;;;;;;;12.59;86.88;99001.22;10503257;28;20179;-75
2021/04/20 20:09:44;;;;;;;7.27;5.27;;;;;;;12.44;87.79;99006.13;10489053;28;20174;-75
2021/04/20 20:15:06;;;;;;;6.30;4.17;;;;;;;12.40;88.12;99005.41;10504121;28;20179;-75
2021/04/20 20:20:28;;;;;;;8.23;3.90;;;;;;;12.32;88.38;99001.19;10486933;28;20202;-75
2021/04/20 20:25:47;;;;;;;9.97;5.60;;;;;;;12.32;87.44;98994.88;10503380;28;20187;-75
2021/04/20 20:31:07;;;;;;;11.40;5.50;;;;;;;12.36;86.37;98993.63;10502724;28;20222;-75
2021/04/20 20:36:33;;;;;;;6.97;5.70;;;;;;;12.40;86.79;98999.91;10501864;28;20183;-74
2021/04/20 20:42:01;;;;;;;6.20;5.10;;;;;;;12.41;88.76;98995.16;10502562;28;20214;-75
2021/04/20 20:47:26;;;;;;;5.73;3.80;;;;;;;12.47;87.79;98996.28;10501521;28;20171;-75
2021/04/20 20:52:50;;;;;;;9.70;4.50;;;;;;;12.41;88.51;98995.16;10502595;28;20208;-76
2021/04/20 20:58:20;;;;;;;5.87;4.70;;;;;;;12.23;89.20;98995.38;10501816;28;20203;-75
2021/04/20 21:03:52;;;;;;;6.27;4.73;;;;;;;11.95;92.54;98990.16;10500280;28;20207;-75
2021/04/20 21:09:26;;;;;;;13.77;4.63;;;;;;;12.04;92.71;98984.94;10487009;28;20609;-75
2021/04/20 21:14:49;;;;;;;7.10;3.47;;;;;;;11.99;92.06;98990.94;10501813;28;20187;-75
2021/04/20 21:20:29;;;;;;;6.00;4.37;;;;;;;11.94;92.00;98988.63;10500068;28;20669;-75
2021/04/20 21:25:49;;;;;;;5.40;4.87;;;;;;;11.71;94.20;98986.91;10501370;28;20206;-75
2021/04/20 21:31:11;;;;;;;5.17;3.80;;;;;;;11.65;94.93;98992.06;10500417;28;20684;-75
2021/04/20 21:36:32;;;;;;;5.10;3.67;;;;;;;11.74;98.23;98989.63;10500060;28;20616;-74
2021/04/20 21:46:57;;;;;;;6.20;5.07;;;;;;;11.51;98.88;98996.91;10298176;28;20289;-75
2021/04/20 21:52:17;;;;;;;12.20;5.70;;;;;;;11.47;99.91;98990.66;10296350;28;20187;-75
2021/04/20 21:57:37;;;;;;;7.20;5.23;;;;;;;11.42;100.00;98999.34;10334722;28;20604;-74
2021/04/20 22:02:58;;;;;;;8.37;3.87;;;;;;;11.55;100.00;98998.47;10327708;28;20217;-74
2021/04/20 22:08:20;;;;;;;8.30;4.80;;;;;;;11.54;100.00;98993.38;10334882;28;20169;-75
2021/04/20 22:13:48;;;;;;;10.53;4.93;;;;;;;11.36;100.00;98996.22;10334334;28;20209;-74
2021/04/20 22:19:09;;;;;;;6.70;3.97;;;;;;;11.34;100.00;99004.13;10320199;28;20173;-75
2021/04/20 22:24:29;;;;;;;7.67;4.20;;;;;;;11.34;100.00;99014.34;10328286;28;20232;-73
2021/04/20 22:30:02;;;;;;;6.20;4.07;;;;;;;11.27;100.00;99017.16;10315750;28;20173;-74
2021/04/20 22:35:22;;;;;;;5.70;5.13;;;;;;;11.10;100.00;99017.31;10313217;28;20221;-74
2021/04/20 22:40:41;;;;;;;4.90;3.93;;;;;;;11.18;100.00;99012.13;10334511;28;20283;-74
2021/04/20 22:46:01;;;;;;;7.33;4.53;;;;;;;10.87;100.00;99023.34;10332489;28;20264;-75
2021/04/20 22:51:22;;;;;;;18.30;6.13;;;;;;;10.74;100.00;99029.69;10334270;28;20675;-75
2021/04/20 22:56:43;;;;;;;14.67;4.53;;;;;;;10.75;100.00;99025.78;10334088;28;20177;-74
2021/04/20 23:02:04;;;;;;;6.03;3.57;;;;;;;10.66;100.00;99026.19;10333485;28;20304;-75
2021/04/20 23:07:23;;;;;;;9.53;4.80;;;;;;;10.58;100.00;99029.41;10333665;28;20489;-74
2021/04/20 23:12:46;;;;;;;6.50;4.10;;;;;;;10.49;100.00;99018.03;10332407;28;20624;-74
2021/04/20 23:18:07;;;;;;;5.67;5.10;;;;;;;10.43;100.00;99022.41;10317897;28;20623;-74
2021/04/20 23:23:50;;;;;;;9.07;3.93;;;;;;;10.45;100.00;99012.56;10332867;28;20200;-74
2021/04/20 23:29:22;;;;;;;10.30;3.83;;;;;;;10.26;100.00;99005.97;10332003;28;20177;-74
2021/04/20 23:34:45;;;;;;;4.90;3.30;;;;;;;10.19;100.00;99004.03;10333284;28;20174;-74
2021/04/20 23:40:06;;;;;;;4.13;3.77;;;;;;;10.00;100.00;99009.19;10332985;28;20221;-74
2021/04/20 23:45:26;;;;;;;5.40;4.30;;;;;;;9.99;100.00;99005.66;10331655;28;20225;-74
2021/04/20 23:50:49;;;;;;;7.87;4.23;;;;;;;10.01;100.00;98999.78;10333036;28;20185;-75
2021/04/20 23:56:09;;;;;;;7.13;4.70;;;;;;;9.87;100.00;98988.78;10317689;28;20170;-74
